Time;durP1;ratioP1;P1;durP2;ratioP2;P2;SDS_P1;SDS_P2;PMS_P1;PMS_P2;Temp;Humidity;BMP_temperature;BMP_pressure;BME280_temperature;BME280_humidity;BME280_pressure;Samples;Min_cycle;Max_cycle;Signal;HPM_P1;HPM_P2
2022/11/08 00:01:50;;;;;;;8.60;3.10;;;13.10;99.90;;;;;;5053750;28;20088;-70
2022/11/08 00:04:17;;;;;;;15.48;3.92;;;13.10;99.90;;;;;;5020319;28;20056;-70
2022/11/08 00:14:57;;;;;;;12.95;3.58;;;13.20;99.90;;;;;;5053522;28;20114;-70
2022/11/08 00:17:25;;;;;;;8.60;3.33;;;13.20;99.90;;;;;;5036663;28;20081;-70
2022/11/08 00:19:51;;;;;;;11.48;3.40;;;13.20;99.90;;;;;;5020243;28;20489;-70
2022/11/08 00:22:17;;;;;;;10.63;3.25;;;13.20;99.90;;;;;;5036557;28;20131;-70
2022/11/08 00:24:43;;;;;;;15.90;4.03;;;13.30;99.90;;;;;;5036166;28;20056;-70
2022/11/08 00:27:21;;;;;;;10.43;4.03;;;13.30;99.90;;;;;;5036408;28;20052;-70
2022/11/08 00:29:47;;;;;;;10.80;3.33;;;13.30;99.90;;;;;;5019990;28;20139;-70
2022/11/08 00:32:15;;;;;;;10.88;3.35;;;13.20;99.90;;;;;;5019914;28;20128;-70
2022/11/08 00:34:41;;;;;;;8.65;3.40;;;13.30;99.90;;;;;;5023656;28;20052;-70
2022/11/08 00:37:07;;;;;;;14.25;3.30;;;13.30;99.90;;;;;;5068794;28;20057;-70
2022/11/08 00:39:35;;;;;;;14.32;3.85;;;13.20;99.90;;;;;;5036456;28;20132;-70
2022/11/08 00:42:00;;;;;;;10.73;3.08;;;13.30;99.90;;;;;;5052964;28;20045;-70
2022/11/08 00:44:26;;;;;;;9.25;2.95;;;13.30;99.90;;;;;;5052735;28;20056;-70
2022/11/08 00:46:52;;;;;;;11.63;3.22;;;13.30;99.90;;;;;;5036471;28;20373;-70
2022/11/08 00:49:18;;;;;;;12.73;3.38;;;13.30;99.90;;;;;;5052466;28;20045;-70
2022/11/08 00:51:44;;;;;;;12.45;3.20;;;13.20;99.90;;;;;;5035934;28;20049;-70
2022/11/08 00:54:13;;;;;;;12.80;3.95;;;13.20;99.90;;;;;;5052475;28;20437;-70
2022/11/08 00:56:39;;;;;;;13.43;2.88;;;13.30;99.90;;;;;;5052798;28;20041;-70
2022/11/08 00:59:05;;;;;;;7.70;3.00;;;13.30;99.90;;;;;;5036014;28;20063;-70
2022/11/08 01:01:30;;;;;;;13.75;3.35;;;13.40;99.90;;;;;;5035756;28;20041;-70
2022/11/08 01:03:56;;;;;;;12.50;3.50;;;13.30;99.90;;;;;;5052360;28;20056;-69
2022/11/08 01:06:23;;;;;;;9.52;2.95;;;13.30;99.90;;;;;;5052342;28;20037;-69
2022/11/08 01:08:49;;;;;;;15.32;3.15;;;13.20;99.90;;;;;;5052345;28;20508;-70
2022/11/08 01:11:18;;;;;;;9.82;2.83;;;13.20;99.90;;;;;;5052083;28;20037;-70
2022/11/08 01:13:44;;;;;;;14.13;3.33;;;13.20;99.90;;;;;;5052480;28;20138;-70
2022/11/08 01:16:13;;;;;;;14.93;3.38;;;13.20;99.90;;;;;;5052206;28;20041;-70
2022/11/08 01:18:39;;;;;;;9.38;3.45;;;13.10;99.90;;;;;;5052407;28;20057;-70
2022/11/08 01:21:05;;;;;;;15.70;3.22;;;13.10;99.90;;;;;;5052107;28;20060;-70
2022/11/08 01:23:33;;;;;;;9.32;2.90;;;13.10;99.90;;;;;;5035436;28;20052;-70
2022/11/08 01:26:04;;;;;;;8.73;2.85;;;13.10;99.90;;;;;;5052192;28;20045;-70
2022/11/08 01:28:30;;;;;;;;;;;13.10;99.90;;;;;;5052366;28;20127;-70
2022/11/08 01:30:56;;;;;;;9.88;3.70;;;13.00;99.90;;;;;;5052025;28;19927;-70
2022/11/08 01:33:22;;;;;;;8.63;3.03;;;13.00;99.90;;;;;;5068594;28;20041;-70
2022/11/08 01:35:47;;;;;;;12.10;3.15;;;13.00;99.90;;;;;;5051807;28;20049;-70
2022/11/08 01:38:13;;;;;;;9.45;2.78;;;12.90;99.90;;;;;;5051952;28;20378;-71
2022/11/08 01:40:47;;;;;;;9.32;3.00;;;13.00;99.90;;;;;;5051964;28;20059;-70
2022/11/08 01:43:24;;;;;;;11.15;2.75;;;12.70;99.90;;;;;;5035488;28;20045;-70
2022/11/08 01:46:11;;;;;;;12.38;3.78;;;12.90;99.90;;;;;;5035412;28;20044;-70
2022/11/08 01:48:45;;;;;;;12.88;3.28;;;12.90;99.90;;;;;;5051689;28;20045;-70
2022/11/08 01:51:14;;;;;;;10.85;3.00;;;12.90;99.90;;;;;;5034890;28;20041;-70
2022/11/08 01:53:40;;;;;;;9.30;3.05;;;12.80;99.90;;;;;;5051989;28;20053;-70
2022/11/08 01:56:08;;;;;;;8.63;3.30;;;12.80;99.90;;;;;;5051920;28;20055;-70
2022/11/08 01:58:36;;;;;;;8.32;3.00;;;12.80;99.90;;;;;;5051397;28;20055;-70
2022/11/08 02:01:02;;;;;;;9.68;2.88;;;12.80;99.90;;;;;;5051842;28;20049;-70
2022/11/08 02:03:32;;;;;;;15.23;3.42;;;12.70;99.90;;;;;;5051606;28;20055;-70
2022/11/08 02:05:59;;;;;;;9.32;3.13;;;12.70;99.90;;;;;;5051860;28;20084;-70
2022/11/08 02:08:36;;;;;;;10.32;3.10;;;12.70;99.90;;;;;;5051554;28;20048;-70
2022/11/08 02:11:04;;;;;;;11.95;3.72;;;12.70;99.90;;;;;;5051678;28;20102;-70
2022/11/08 02:13:31;;;;;;;8.77;3.30;;;12.70;99.90;;;;;;5050888;28;20500;-70
2022/11/08 02:15:57;;;;;;;14.23;3.58;;;12.70;99.90;;;;;;5051730;28;20045;-70
2022/11/08 02:18:26;;;;;;;11.35;3.30;;;12.70;99.90;;;;;;5068182;28;20110;-70
2022/11/08 02:21:16;;;;;;;14.23;3.70;;;12.70;99.90;;;;;;5051693;28;20477;-70
2022/11/08 02:23:49;;;;;;;10.38;3.97;;;12.70;99.90;;;;;;5051482;28;20045;-70
2022/11/08 02:26:17;;;;;;;11.73;3.22;;;12.70;99.90;;;;;;5051466;28;20565;-70
2022/11/08 02:28:46;;;;;;;13.00;3.63;;;12.60;99.90;;;;;;5051244;28;20107;-70
2022/11/08 02:31:14;;;;;;;14.05;3.13;;;12.50;99.90;;;;;;5051414;28;20401;-70
2022/11/08 02:33:40;;;;;;;12.15;3.15;;;12.50;99.90;;;;;;5034804;28;20099;-70
2022/11/08 02:36:07;;;;;;;9.40;3.13;;;12.40;99.90;;;;;;5051000;28;20053;-70
2022/11/08 02:38:39;;;;;;;10.18;3.00;;;12.40;99.90;;;;;;5051251;28;20053;-70
2022/11/08 02:41:05;;;;;;;10.30;3.80;;;12.40;99.90;;;;;;5051577;28;20064;-71
2022/11/08 02:43:31;;;;;;;7.18;3.20;;;12.30;99.90;;;;;;5051218;28;20410;-71
2022/11/08 02:45:57;;;;;;;9.88;3.38;;;12.20;99.90;;;;;;5051110;28;20051;-70
2022/11/08 02:48:24;;;;;;;12.55;3.47;;;12.20;99.90;;;;;;5050699;28;20053;-71
2022/11/08 02:50:50;;;;;;;11.68;3.25;;;12.20;99.90;;;;;;5051003;28;20404;-70
2022/11/08 02:53:16;;;;;;;10.85;3.20;;;12.20;99.90;;;;;;5051061;28;20132;-70
2022/11/08 02:55:42;;;;;;;9.75;3.40;;;12.10;99.90;;;;;;5050774;28;20049;-69
2022/11/08 02:58:08;;;;;;;9.65;3.30;;;12.20;99.90;;;;;;5051289;28;20128;-70
2022/11/08 03:00:34;;;;;;;11.25;3.10;;;12.10;99.90;;;;;;5051956;28;20048;-70
2022/11/08 03:03:00;;;;;;;8.82;3.20;;;12.10;99.90;;;;;;5054869;28;20135;-70
2022/11/08 03:05:27;;;;;;;7.13;2.80;;;12.10;99.90;;;;;;5054653;28;20044;-70
2022/11/08 03:07:53;;;;;;;12.00;3.10;;;12.10;99.90;;;;;;5054802;28;20149;-70
2022/11/08 03:10:20;;;;;;;10.23;3.58;;;12.10;99.90;;;;;;5054671;28;20055;-70
2022/11/08 03:12:46;;;;;;;11.30;3.40;;;12.10;99.90;;;;;;5054589;28;20048;-70
2022/11/08 03:15:12;;;;;;;11.52;3.17;;;12.00;99.90;;;;;;5054576;28;20473;-70
2022/11/08 03:17:39;;;;;;;13.27;3.40;;;12.00;99.90;;;;;;5054429;28;20466;-70
2022/11/08 03:20:06;;;;;;;10.70;3.35;;;12.00;99.90;;;;;;5054937;28;20045;-70
2022/11/08 03:22:32;;;;;;;12.05;4.47;;;12.00;99.90;;;;;;5053985;28;20091;-69
2022/11/08 03:24:58;;;;;;;11.30;3.28;;;12.00;99.90;;;;;;5054439;28;20073;-70
2022/11/08 03:27:24;;;;;;;8.70;3.20;;;12.00;99.90;;;;;;5071048;28;20033;-70
2022/11/08 03:29:49;;;;;;;9.65;3.13;;;12.00;99.90;;;;;;5054127;28;20071;-70
2022/11/08 03:32:16;;;;;;;8.90;3.55;;;12.00;99.90;;;;;;5053886;28;20520;-70
2022/11/08 03:34:41;;;;;;;8.00;2.97;;;12.00;99.90;;;;;;5040201;28;20045;-70
2022/11/08 03:37:09;;;;;;;13.23;3.50;;;12.00;99.90;;;;;;5057259;28;20185;-70
2022/11/08 03:39:35;;;;;;;11.88;3.10;;;11.90;99.90;;;;;;5056731;28;20052;-70
2022/11/08 03:42:01;;;;;;;10.43;3.05;;;11.90;99.90;;;;;;5056897;28;20095;-70
2022/11/08 03:44:28;;;;;;;9.07;3.15;;;11.90;99.90;;;;;;5057188;28;20045;-70
2022/11/08 03:46:54;;;;;;;10.35;3.47;;;11.90;99.90;;;;;;5057017;28;20202;-70
2022/11/08 03:49:20;;;;;;;9.45;3.05;;;11.80;99.90;;;;;;5057241;28;20101;-70
2022/11/08 03:51:46;;;;;;;7.25;2.88;;;11.80;99.90;;;;;;5056667;28;20192;-70
2022/11/08 03:54:12;;;;;;;6.97;3.15;;;11.80;99.90;;;;;;5056956;28;20502;-70
2022/11/08 03:56:38;;;;;;;10.57;2.90;;;11.80;99.90;;;;;;5040042;28;20481;-70
2022/11/08 03:59:04;;;;;;;8.02;3.05;;;11.80;99.90;;;;;;5057178;28;20056;-71
2022/11/08 04:01:30;;;;;;;11.23;3.22;;;11.80;99.90;;;;;;5057139;28;20384;-70
2022/11/08 04:03:55;;;;;;;10.60;3.13;;;11.80;99.90;;;;;;5056813;28;20044;-70
2022/11/08 04:06:21;;;;;;;10.30;3.00;;;11.80;99.90;;;;;;5057004;28;20068;-70
2022/11/08 04:08:47;;;;;;;8.30;3.20;;;11.80;99.90;;;;;;5040123;28;20127;-70
2022/11/08 04:16:41;;;;;;;11.55;3.40;;;11.80;99.90;;;;;;5056576;28;20052;-70
2022/11/08 04:21:53;;;;;;;15.40;3.70;;;11.70;99.90;;;;;;5056516;28;20044;-70
2022/11/08 04:24:19;;;;;;;7.10;3.20;;;11.70;99.90;;;;;;5056696;28;20059;-70
2022/11/08 04:26:45;;;;;;;7.18;2.80;;;11.70;99.90;;;;;;5056325;28;20493;-70
2022/11/08 04:29:12;;;;;;;5.28;2.88;;;11.70;99.90;;;;;;5056577;28;20051;-70
2022/11/08 04:31:38;;;;;;;10.90;3.13;;;11.60;99.90;;;;;;5055961;28;20117;-70
2022/11/08 04:34:04;;;;;;;14.18;3.60;;;11.60;99.90;;;;;;5056512;28;20052;-70
2022/11/08 04:36:30;;;;;;;11.93;3.35;;;11.60;99.90;;;;;;5055926;28;20052;-71
2022/11/08 04:38:55;;;;;;;14.05;3.38;;;11.50;99.90;;;;;;5054821;28;20060;-70
2022/11/08 04:41:23;;;;;;;9.30;3.07;;;11.40;99.90;;;;;;4688997;28;10000562;-70
2022/11/08 04:43:50;;;;;;;10.95;3.08;;;11.30;99.90;;;;;;5017273;28;20294;-70
2022/11/08 04:46:18;;;;;;;12.68;3.08;;;11.30;99.90;;;;;;5034028;28;20095;-70
2022/11/08 04:48:45;;;;;;;12.52;3.45;;;11.30;99.90;;;;;;5033797;28;20056;-70
2022/11/08 04:51:17;;;;;;;10.07;3.80;;;11.20;99.90;;;;;;5035669;28;20084;-71
2022/11/08 04:53:44;;;;;;;9.45;2.80;;;11.20;99.90;;;;;;5050361;28;20084;-71
2022/11/08 04:56:15;;;;;;;10.65;3.50;;;11.20;99.90;;;;;;5033544;28;20503;-70
2022/11/08 04:58:43;;;;;;;10.70;3.50;;;11.20;99.90;;;;;;5049167;28;20393;-72
2022/11/08 05:01:11;;;;;;;8.02;3.88;;;11.20;99.90;;;;;;5030555;28;20049;-71
2022/11/08 05:03:36;;;;;;;12.68;4.28;;;11.30;99.90;;;;;;4997140;28;20045;-70
2022/11/08 05:06:10;;;;;;;9.60;3.50;;;11.20;99.90;;;;;;5013603;28;20056;-70
2022/11/08 05:08:36;;;;;;;8.73;3.83;;;11.30;99.90;;;;;;5013871;28;20473;-70
2022/11/08 05:11:05;;;;;;;9.93;3.90;;;11.20;99.90;;;;;;5013309;28;20863;-70
2022/11/08 05:13:31;;;;;;;9.00;3.47;;;11.30;99.90;;;;;;5029985;28;20114;-70
2022/11/08 05:16:06;;;;;;;14.38;3.88;;;11.30;99.90;;;;;;4996800;28;20041;-71
2022/11/08 05:18:32;;;;;;;7.97;4.07;;;11.40;99.90;;;;;;5035699;28;20044;-70
2022/11/08 05:23:44;;;;;;;13.00;4.05;;;11.50;99.90;;;;;;5052426;28;20048;-71
2022/11/08 05:26:10;;;;;;;6.13;3.85;;;11.50;99.90;;;;;;5055432;28;20048;-70
2022/11/08 05:28:36;;;;;;;12.55;3.70;;;11.50;99.90;;;;;;5054860;28;20404;-69
2022/11/08 05:31:02;;;;;;;10.85;3.85;;;11.40;99.90;;;;;;5055072;28;20044;-70
2022/11/08 05:33:28;;;;;;;13.60;3.65;;;11.40;99.90;;;;;;5038935;28;20056;-70
2022/11/08 05:35:54;;;;;;;13.68;3.70;;;11.50;99.90;;;;;;5054942;28;20048;-70
2022/11/08 05:38:20;;;;;;;8.85;3.50;;;11.40;99.90;;;;;;5055001;28;20059;-70
2022/11/08 05:40:46;;;;;;;9.68;3.28;;;11.30;99.90;;;;;;5038748;28;20105;-70
2022/11/08 05:43:12;;;;;;;8.07;3.40;;;11.30;99.90;;;;;;5038722;28;20469;-70
2022/11/08 05:45:38;;;;;;;13.80;3.65;;;11.30;99.90;;;;;;5072079;28;20043;-70
2022/11/08 05:48:04;;;;;;;7.13;3.35;;;11.30;99.90;;;;;;5055123;28;20037;-70
2022/11/08 05:50:34;;;;;;;11.60;3.70;;;11.40;99.90;;;;;;5055135;28;20044;-70
2022/11/08 05:53:03;;;;;;;12.52;3.72;;;11.30;99.90;;;;;;5071563;28;20121;-69
2022/11/08 05:55:29;;;;;;;13.45;4.20;;;11.30;99.90;;;;;;5055194;28;20469;-70
2022/11/08 05:57:54;;;;;;;8.40;3.85;;;11.30;99.90;;;;;;5055040;28;20535;-70
2022/11/08 06:00:20;;;;;;;10.32;4.00;;;11.30;99.90;;;;;;5054870;28;20392;-70
2022/11/08 06:02:46;;;;;;;11.18;3.35;;;11.30;99.90;;;;;;5055065;28;20063;-70
2022/11/08 06:05:12;;;;;;;9.18;3.67;;;11.20;99.90;;;;;;5054924;28;20446;-70
2022/11/08 06:07:38;;;;;;;11.95;4.05;;;11.20;99.90;;;;;;5055178;28;20052;-70
2022/11/08 06:10:04;;;;;;;9.38;3.95;;;11.20;99.90;;;;;;5038236;28;20139;-70
2022/11/08 06:12:30;;;;;;;11.48;4.05;;;11.20;99.90;;;;;;5038059;28;20052;-70
2022/11/08 06:14:56;;;;;;;14.18;3.90;;;11.10;99.90;;;;;;5054690;28;20392;-70
2022/11/08 06:17:22;;;;;;;7.85;3.92;;;11.00;99.90;;;;;;5038428;28;20131;-71
2022/11/08 06:19:47;;;;;;;12.30;4.30;;;11.00;99.90;;;;;;5038068;28;20044;-70
2022/11/08 06:22:13;;;;;;;10.15;4.13;;;10.90;99.90;;;;;;5054734;28;20131;-70
2022/11/08 06:24:39;;;;;;;10.75;3.97;;;10.80;99.90;;;;;;5054883;28;20052;-70
2022/11/08 06:27:04;;;;;;;8.90;4.40;;;10.80;99.90;;;;;;5038132;28;20080;-69
2022/11/08 06:29:30;;;;;;;16.08;4.78;;;10.80;99.90;;;;;;5054692;28;20040;-69
2022/11/08 06:31:57;;;;;;;10.02;4.00;;;10.80;99.90;;;;;;5053638;28;20054;-70
2022/11/08 06:34:24;;;;;;;9.70;4.10;;;10.00;99.90;;;;;;5054638;28;20066;-70
2022/11/08 06:36:50;;;;;;;11.07;4.45;;;10.90;99.90;;;;;;5057347;28;20468;-70
2022/11/08 06:39:15;;;;;;;9.65;4.47;;;10.90;99.90;;;;;;5041719;28;20080;-70
2022/11/08 06:41:41;;;;;;;11.93;4.53;;;10.90;99.90;;;;;;5041978;28;20492;-70
2022/11/08 06:44:07;;;;;;;12.10;4.35;;;10.90;99.90;;;;;;5058483;28;20066;-70
2022/11/08 06:46:32;;;;;;;14.63;4.40;;;10.90;99.90;;;;;;5058493;28;20044;-70
2022/11/08 06:48:58;;;;;;;11.50;4.30;;;10.90;99.90;;;;;;5041430;28;20062;-70
2022/11/08 06:51:24;;;;;;;13.23;4.82;;;10.90;99.90;;;;;;5058317;28;20044;-70
2022/11/08 06:53:49;;;;;;;14.55;4.70;;;10.90;99.90;;;;;;5058371;28;20377;-70
2022/11/08 06:56:15;;;;;;;11.45;4.78;;;10.90;99.90;;;;;;5057809;28;20083;-70
2022/11/08 06:58:41;;;;;;;11.07;4.38;;;10.90;99.90;;;;;;5058340;28;20060;-69
2022/11/08 07:01:09;;;;;;;8.38;4.72;;;11.00;99.90;;;;;;5058043;28;20040;-70
2022/11/08 07:03:35;;;;;;;9.18;4.00;;;11.00;99.90;;;;;;5058214;28;20508;-70
2022/11/08 07:06:02;;;;;;;12.85;4.22;;;11.00;99.90;;;;;;5057717;28;20052;-71
2022/11/08 07:08:27;;;;;;;12.05;5.25;;;11.10;99.90;;;;;;5058146;28;20057;-70
2022/11/08 07:10:53;;;;;;;9.88;3.90;;;11.20;99.90;;;;;;5057803;28;20064;-70
2022/11/08 07:13:19;;;;;;;13.65;4.13;;;11.10;99.90;;;;;;5057749;28;20045;-70
2022/11/08 07:15:46;;;;;;;10.57;3.70;;;11.10;99.90;;;;;;5057679;28;20062;-70
2022/11/08 07:18:14;;;;;;;12.07;3.67;;;11.30;99.90;;;;;;5040882;28;20049;-70
2022/11/08 07:20:40;;;;;;;10.68;3.90;;;11.30;99.90;;;;;;5057901;28;20060;-69
2022/11/08 07:23:07;;;;;;;7.35;3.42;;;11.30;99.90;;;;;;5057652;28;20088;-70
2022/11/08 07:25:33;;;;;;;6.75;3.00;;;11.40;99.90;;;;;;5041295;28;20060;-70
2022/11/08 07:28:01;;;;;;;7.88;3.42;;;11.40;99.90;;;;;;5057752;28;20047;-70
2022/11/08 07:30:28;;;;;;;9.20;3.35;;;11.40;99.90;;;;;;5057590;28;20094;-70
2022/11/08 07:32:55;;;;;;;8.43;3.70;;;11.50;99.90;;;;;;5057583;28;20120;-70
2022/11/08 07:35:21;;;;;;;10.15;3.20;;;11.50;99.90;;;;;;5057249;28;20565;-70
2022/11/08 07:37:46;;;;;;;8.88;3.20;;;11.50;99.90;;;;;;5057669;28;20114;-70
2022/11/08 07:40:13;;;;;;;4.45;2.60;;;11.50;99.90;;;;;;5040239;28;20048;-70
2022/11/08 07:42:39;;;;;;;8.00;2.85;;;11.60;99.90;;;;;;5057571;28;20052;-70
2022/11/08 07:45:07;;;;;;;6.57;2.42;;;11.60;99.90;;;;;;5040701;28;20048;-70
2022/11/08 07:47:33;;;;;;;5.47;2.45;;;11.70;99.90;;;;;;5040584;28;20384;-70
2022/11/08 07:49:59;;;;;;;8.55;2.47;;;11.70;99.90;;;;;;5040834;28;20408;-70
2022/11/08 07:52:24;;;;;;;7.35;2.58;;;11.90;99.90;;;;;;5040190;28;20110;-70
2022/11/08 07:54:50;;;;;;;7.43;2.65;;;11.90;99.90;;;;;;5040698;28;20397;-70
2022/11/08 07:57:16;;;;;;;6.25;2.42;;;11.90;99.90;;;;;;5056962;28;20102;-70
2022/11/08 07:59:41;;;;;;;6.90;2.25;;;12.00;99.90;;;;;;5057181;28;20041;-70
2022/11/08 08:02:11;;;;;;;6.95;2.22;;;12.10;99.90;;;;;;5040199;28;20044;-70
2022/11/08 08:04:37;;;;;;;7.10;2.40;;;12.10;99.90;;;;;;5057075;28;20040;-70
2022/11/08 08:07:03;;;;;;;6.18;2.25;;;12.20;99.90;;;;;;5056737;28;20118;-70
2022/11/08 08:09:29;;;;;;;5.97;2.15;;;12.20;99.90;;;;;;5040179;28;20061;-70
2022/11/08 08:11:54;;;;;;;4.93;2.03;;;12.30;99.90;;;;;;5056687;28;20048;-70
2022/11/08 08:14:20;;;;;;;7.13;2.40;;;12.30;99.90;;;;;;5056647;28;20052;-70
2022/11/08 08:16:46;;;;;;;7.57;2.22;;;12.40;99.90;;;;;;5040314;28;20045;-70
2022/11/08 08:19:11;;;;;;;5.70;2.15;;;12.40;99.90;;;;;;5056564;28;20044;-70
2022/11/08 08:21:37;;;;;;;4.40;2.13;;;12.50;99.90;;;;;;5056376;28;20568;-70
2022/11/08 08:24:04;;;;;;;4.53;2.20;;;12.50;99.90;;;;;;5056770;28;20049;-70
2022/11/08 08:26:29;;;;;;;7.20;2.50;;;12.60;99.90;;;;;;5056194;28;20133;-70
2022/11/08 08:28:55;;;;;;;4.55;2.10;;;12.70;99.90;;;;;;5056369;28;20082;-70
2022/11/08 08:31:21;;;;;;;4.93;1.80;;;12.70;99.90;;;;;;5056198;28;20040;-70
2022/11/08 08:33:46;;;;;;;4.57;1.83;;;12.80;99.90;;;;;;5039897;28;20044;-70
2022/11/08 08:36:12;;;;;;;6.30;2.53;;;12.80;99.90;;;;;;5035938;28;20522;-70
2022/11/08 08:38:38;;;;;;;5.03;2.00;;;12.80;99.90;;;;;;5053142;28;20053;-71
2022/11/08 08:41:04;;;;;;;5.35;2.03;;;12.80;99.90;;;;;;5052972;28;20055;-70
2022/11/08 08:43:33;;;;;;;4.40;2.08;;;12.90;99.90;;;;;;5052748;28;20049;-70
2022/11/08 08:46:00;;;;;;;4.25;2.10;;;12.90;99.90;;;;;;5069407;28;20049;-70
2022/11/08 08:48:26;;;;;;;3.33;2.17;;;12.90;99.90;;;;;;5052636;28;20532;-70
2022/11/08 08:50:52;;;;;;;6.43;2.28;;;13.10;99.90;;;;;;5052584;28;20123;-70
2022/11/08 08:53:17;;;;;;;5.78;2.08;;;13.20;99.90;;;;;;5036100;28;20044;-70
2022/11/08 08:55:43;;;;;;;5.38;2.00;;;13.20;99.90;;;;;;5052830;28;20045;-70
2022/11/08 08:58:10;;;;;;;5.32;2.10;;;13.30;99.90;;;;;;5035455;28;20053;-72
2022/11/08 09:00:36;;;;;;;4.93;2.10;;;13.20;99.90;;;;;;5035993;28;20370;-69
2022/11/08 09:03:07;;;;;;;5.13;2.30;;;13.20;99.90;;;;;;5036005;28;20088;-71
2022/11/08 09:05:33;;;;;;;4.88;2.00;;;13.20;99.90;;;;;;5052411;28;20053;-70
2022/11/08 09:08:00;;;;;;;6.47;2.47;;;13.20;99.90;;;;;;5052620;28;20496;-70
2022/11/08 09:10:26;;;;;;;5.45;2.03;;;13.30;99.90;;;;;;5051998;28;20088;-70
2022/11/08 09:12:52;;;;;;;5.93;2.22;;;13.30;99.90;;;;;;5052643;28;20037;-70
2022/11/08 09:15:19;;;;;;;3.47;1.77;;;13.30;99.90;;;;;;5035606;28;20474;-70
2022/11/08 09:17:44;;;;;;;6.53;1.85;;;13.40;99.90;;;;;;5052414;28;20053;-70
2022/11/08 09:20:11;;;;;;;5.43;2.08;;;13.40;99.90;;;;;;5041211;28;20049;-71
2022/11/08 09:22:37;;;;;;;5.28;2.08;;;13.30;99.90;;;;;;5015614;28;20195;-70
2022/11/08 09:25:03;;;;;;;8.25;1.95;;;13.40;99.90;;;;;;5015782;28;20095;-70
2022/11/08 09:27:30;;;;;;;6.18;2.17;;;13.40;99.90;;;;;;4997582;28;20080;-70
2022/11/08 09:29:57;;;;;;;5.68;2.42;;;13.40;99.90;;;;;;5015237;28;20088;-70
2022/11/08 09:32:24;;;;;;;7.80;2.35;;;13.50;99.90;;;;;;5031300;28;20042;-70
2022/11/08 09:34:50;;;;;;;4.72;2.08;;;13.50;99.90;;;;;;5015550;28;20053;-70
2022/11/08 09:37:16;;;;;;;7.85;2.58;;;13.50;99.90;;;;;;5031756;28;20049;-70
2022/11/08 09:39:42;;;;;;;7.15;2.30;;;13.60;99.90;;;;;;5031928;28;20490;-70
2022/11/08 09:42:11;;;;;;;3.97;2.05;;;13.60;99.90;;;;;;5032999;28;20044;-70
2022/11/08 09:44:57;;;;;;;3.35;1.80;;;13.70;99.90;;;;;;5031818;28;20050;-70
2022/11/08 09:47:28;;;;;;;5.72;2.70;;;13.70;99.90;;;;;;5031985;28;20053;-71
2022/11/08 09:50:25;;;;;;;5.43;2.33;;;13.80;99.90;;;;;;5032048;28;20042;-70
2022/11/08 09:53:06;;;;;;;4.40;2.10;;;13.90;99.90;;;;;;5032127;28;20085;-70
2022/11/08 09:55:46;;;;;;;4.28;1.95;;;14.00;99.90;;;;;;5015536;28;20050;-70
2022/11/08 09:58:32;;;;;;;5.20;2.25;;;14.10;99.90;;;;;;5015615;28;20136;-70
2022/11/08 10:00:58;;;;;;;5.50;2.35;;;14.10;99.90;;;;;;5015580;28;20049;-70
2022/11/08 10:03:24;;;;;;;3.67;2.30;;;14.10;99.90;;;;;;5031644;28;20128;-71
2022/11/08 10:06:17;;;;;;;4.00;2.17;;;14.10;99.90;;;;;;5031952;28;20050;-70
2022/11/08 10:09:02;;;;;;;6.80;2.25;;;14.10;99.90;;;;;;5015253;28;20050;-70
2022/11/08 10:12:07;;;;;;;3.92;2.17;;;14.10;99.90;;;;;;5019020;28;20037;-70
2022/11/08 10:15:00;;;;;;;5.15;2.20;;;14.10;99.90;;;;;;5034695;28;20053;-70
2022/11/08 10:17:34;;;;;;;5.07;2.15;;;14.10;99.90;;;;;;5035752;28;20056;-70
2022/11/08 10:20:07;;;;;;;5.43;1.80;;;14.10;99.90;;;;;;5035720;28;20557;-70
2022/11/08 10:22:57;;;;;;;4.38;2.00;;;14.20;99.90;;;;;;5035310;28;20441;-71
2022/11/08 10:25:27;;;;;;;4.78;2.10;;;14.30;99.90;;;;;;5035686;28;20060;-70
2022/11/08 10:27:55;;;;;;;6.17;2.03;;;14.40;99.90;;;;;;5019317;28;20053;-70
2022/11/08 10:30:24;;;;;;;5.13;2.05;;;14.50;99.90;;;;;;5019053;28;20055;-70
2022/11/08 10:32:55;;;;;;;5.65;1.98;;;14.50;99.90;;;;;;5035147;28;20545;-70
2022/11/08 10:35:36;;;;;;;4.22;1.85;;;14.60;99.90;;;;;;5021237;28;20494;-70
2022/11/08 10:38:16;;;;;;;6.18;1.75;;;14.60;99.90;;;;;;5038776;28;20092;-70
2022/11/08 10:40:57;;;;;;;5.38;1.80;;;14.60;99.90;;;;;;5038241;28;20094;-69
2022/11/08 10:43:32;;;;;;;6.57;2.00;;;14.60;99.90;;;;;;5038709;28;20051;-70
2022/11/08 10:45:58;;;;;;;2.92;1.83;;;14.70;99.90;;;;;;5038783;28;20057;-70
2022/11/08 10:48:24;;;;;;;4.05;1.98;;;14.70;99.90;;;;;;5038462;28;20549;-71
2022/11/08 10:50:52;;;;;;;2.97;1.77;;;14.70;99.90;;;;;;5021697;28;20095;-70
2022/11/08 10:53:27;;;;;;;3.47;1.95;;;14.80;99.90;;;;;;5038494;28;20041;-70
2022/11/08 10:56:05;;;;;;;4.20;1.77;;;14.80;99.90;;;;;;5054880;28;20048;-70
2022/11/08 10:58:42;;;;;;;2.83;1.73;;;14.90;99.90;;;;;;5054800;28;20049;-69
2022/11/08 11:01:16;;;;;;;3.28;1.73;;;14.90;99.90;;;;;;5038401;28;20049;-71
2022/11/08 11:03:42;;;;;;;4.40;1.85;;;14.90;99.90;;;;;;5038075;28;20037;-70
2022/11/08 11:06:29;;;;;;;4.78;2.00;;;14.80;99.90;;;;;;5005549;28;20041;-70
2022/11/08 11:08:57;;;;;;;4.47;1.88;;;14.70;99.90;;;;;;5036982;28;20045;-70
2022/11/08 11:11:29;;;;;;;3.35;2.00;;;14.70;99.90;;;;;;5037609;28;20045;-70
2022/11/08 11:14:20;;;;;;;4.97;2.03;;;14.70;99.90;;;;;;5021391;28;20135;-71
2022/11/08 11:17:04;;;;;;;3.88;1.98;;;14.70;99.90;;;;;;5037975;28;20044;-71
2022/11/08 11:19:31;;;;;;;7.50;2.20;;;14.70;99.90;;;;;;5038056;28;20095;-70
2022/11/08 11:22:07;;;;;;;3.67;1.75;;;14.60;99.90;;;;;;4988173;28;20048;-70
2022/11/08 11:24:46;;;;;;;4.30;1.88;;;14.60;99.90;;;;;;5020428;28;20048;-70
2022/11/08 11:27:23;;;;;;;4.43;1.83;;;14.50;99.90;;;;;;5019156;28;20059;-70
2022/11/08 11:29:48;;;;;;;2.95;1.70;;;14.50;99.90;;;;;;5035268;28;20689;-70
2022/11/08 11:32:31;;;;;;;6.43;2.08;;;14.50;99.90;;;;;;5035128;28;20047;-70
2022/11/08 11:35:03;;;;;;;4.10;2.03;;;14.50;99.90;;;;;;5035242;28;20137;-71
2022/11/08 11:37:36;;;;;;;4.32;2.22;;;14.50;99.90;;;;;;5017902;28;20140;-71
2022/11/08 11:40:19;;;;;;;4.28;2.03;;;14.60;99.90;;;;;;5035407;28;20095;-70
2022/11/08 11:42:57;;;;;;;4.72;2.10;;;14.60;99.90;;;;;;4671078;28;9999768;-71
2022/11/08 11:45:28;;;;;;;6.47;2.30;;;14.70;99.90;;;;;;5015283;28;20057;-71
2022/11/08 11:48:01;;;;;;;4.20;2.00;;;14.70;99.90;;;;;;4998835;28;20162;-71
2022/11/08 11:50:39;;;;;;;3.05;1.38;;;14.90;99.90;;;;;;4998633;28;20118;-70
2022/11/08 11:53:31;;;;;;;5.18;2.10;;;15.10;99.90;;;;;;5031844;28;20100;-70
2022/11/08 11:56:16;;;;;;;5.38;2.00;;;15.10;99.90;;;;;;5015065;28;20049;-70
2022/11/08 11:58:49;;;;;;;4.38;1.70;;;15.20;99.90;;;;;;4998684;28;20049;-70
2022/11/08 12:01:30;;;;;;;5.07;1.80;;;15.20;99.90;;;;;;4998433;28;20491;-70
2022/11/08 12:04:11;;;;;;;6.35;2.03;;;15.20;99.90;;;;;;5014851;28;20485;-70
2022/11/08 12:06:56;;;;;;;3.00;1.70;;;15.10;99.90;;;;;;5015006;28;20057;-70
2022/11/08 12:09:44;;;;;;;3.40;1.60;;;15.10;99.90;;;;;;5015030;28;20490;-70
2022/11/08 12:12:15;;;;;;;5.13;2.20;;;15.20;99.90;;;;;;5014622;28;20087;-70
2022/11/08 12:15:01;;;;;;;4.65;1.80;;;15.20;99.90;;;;;;5014249;28;20047;-69
2022/11/08 12:17:47;;;;;;;4.05;2.00;;;15.10;99.90;;;;;;4998096;28;20092;-70
2022/11/08 12:20:51;;;;;;;5.18;1.80;;;15.10;99.90;;;;;;5013792;28;20057;-70
2022/11/08 12:23:23;;;;;;;4.05;1.85;;;15.10;99.90;;;;;;5014496;28;20103;-70
2022/11/08 12:25:58;;;;;;;3.70;1.67;;;15.10;99.90;;;;;;5013777;28;20049;-70
2022/11/08 12:28:51;;;;;;;3.88;1.98;;;15.20;99.90;;;;;;5014483;28;20068;-70
2022/11/08 12:31:26;;;;;;;3.75;1.77;;;15.20;99.90;;;;;;5014117;28;20505;-69
2022/11/08 12:34:04;;;;;;;6.18;1.90;;;15.40;99.90;;;;;;4996657;28;20048;-70
2022/11/08 12:37:00;;;;;;;5.68;2.03;;;15.40;99.90;;;;;;5019685;28;20053;-70
2022/11/08 12:39:39;;;;;;;3.67;2.00;;;15.50;99.90;;;;;;5030666;28;20096;-71
2022/11/08 12:42:13;;;;;;;4.05;2.00;;;15.60;99.90;;;;;;5030272;28;20049;-71
2022/11/08 12:44:53;;;;;;;3.97;2.03;;;15.90;99.90;;;;;;5030334;28;20049;-70
2022/11/08 12:47:22;;;;;;;2.78;1.90;;;16.00;99.90;;;;;;5029591;28;20689;-70
2022/11/08 12:50:19;;;;;;;5.15;1.80;;;15.80;99.90;;;;;;5029654;28;20041;-71
2022/11/08 12:53:07;;;;;;;4.93;2.08;;;15.60;99.90;;;;;;5030691;28;20046;-70
2022/11/08 12:55:38;;;;;;;4.43;1.77;;;15.60;99.90;;;;;;5030029;28;20064;-70
2022/11/08 12:58:31;;;;;;;2.22;1.88;;;15.50;99.90;;;;;;5011463;28;20053;-70
2022/11/08 13:01:01;;;;;;;6.90;1.80;;;15.50;99.90;;;;;;5029483;28;20088;-70
2022/11/08 13:03:41;;;;;;;4.90;1.88;;;15.40;99.90;;;;;;5030300;28;20049;-71
2022/11/08 13:06:30;;;;;;;5.03;2.03;;;15.30;99.90;;;;;;5013717;28;20394;-70
2022/11/08 13:09:25;;;;;;;4.13;1.90;;;15.30;99.90;;;;;;5013545;28;20107;-70
2022/11/08 13:12:09;;;;;;;5.57;2.22;;;15.30;99.90;;;;;;5027886;28;20077;-71
2022/11/08 13:14:35;;;;;;;3.72;1.80;;;15.30;99.90;;;;;;5029722;28;20049;-70
2022/11/08 13:17:16;;;;;;;3.95;1.70;;;15.40;99.90;;;;;;5029642;28;20056;-70